Map

Track Data

SID SEASON NUMBER BASIN SUBBASIN NAME ISO_TIME NATURE LAT LON WMO_WIND WMO_PRES WMO_AGENCY TRACK_TYPE DIST2LAND LANDFALL IFLAG USA_AGENCY USA_ATCF_ID USA_LAT USA_LON USA_RECORD USA_STATUS USA_WIND USA_PRES USA_SSHS USA_R34_NE USA_R34_SE USA_R34_SW USA_R34_NW USA_R50_NE USA_R50_SE USA_R50_SW USA_R50_NW USA_R64_NE USA_R64_SE USA_R64_SW USA_R64_NW USA_POCI USA_ROCI USA_RMW USA_EYE TOKYO_LAT TOKYO_LON TOKYO_GRADE TOKYO_WIND TOKYO_PRES TOKYO_R50_DIR TOKYO_R50_LONG TOKYO_R50_SHORT TOKYO_R30_DIR TOKYO_R30_LONG TOKYO_R30_SHORT TOKYO_LAND CMA_LAT CMA_LON CMA_CAT CMA_WIND CMA_PRES HKO_LAT HKO_LON HKO_CAT HKO_WIND HKO_PRES NEWDELHI_LAT NEWDELHI_LON NEWDELHI_GRADE NEWDELHI_WIND NEWDELHI_PRES NEWDELHI_CI NEWDELHI_DP NEWDELHI_POCI REUNION_LAT REUNION_LON REUNION_TYPE REUNION_WIND REUNION_PRES REUNION_TNUM REUNION_CI REUNION_RMW REUNION_R34_NE REUNION_R34_SE REUNION_R34_SW REUNION_R34_NW REUNION_R50_NE REUNION_R50_SE REUNION_R50_SW REUNION_R50_NW REUNION_R64_NE REUNION_R64_SE REUNION_R64_SW REUNION_R64_NW BOM_LAT BOM_LON BOM_TYPE BOM_WIND BOM_PRES BOM_TNUM BOM_CI BOM_RMW BOM_R34_NE BOM_R34_SE BOM_R34_SW BOM_R34_NW BOM_R50_NE BOM_R50_SE BOM_R50_SW BOM_R50_NW BOM_R64_NE BOM_R64_SE BOM_R64_SW BOM_R64_NW BOM_ROCI BOM_POCI BOM_EYE BOM_POS_METHOD BOM_PRES_METHOD NADI_LAT NADI_LON NADI_CAT NADI_WIND NADI_PRES WELLINGTON_LAT WELLINGTON_LON WELLINGTON_WIND WELLINGTON_PRES DS824_LAT DS824_LON DS824_STAGE DS824_WIND DS824_PRES TD9636_LAT TD9636_LON TD9636_STAGE TD9636_WIND TD9636_PRES TD9635_LAT TD9635_LON TD9635_WIND TD9635_PRES TD9635_ROCI NEUMANN_LAT NEUMANN_LON NEUMANN_CLASS NEUMANN_WIND NEUMANN_PRES MLC_LAT MLC_LON MLC_CLASS MLC_WIND MLC_PRES USA_GUST BOM_GUST BOM_GUST_PER REUNION_GUST REUNION_GUST_PER USA_SEAHGT USA_SEARAD_NE USA_SEARAD_SE USA_SEARAD_SW USA_SEARAD_NW STORM_SPEED STORM_DIR
1989216N06159 1989 74 WP MM OWEN 1989-08-04 00:00:00 NR 6.00000 159.000 main 1300 1280 O_________O___ jtwc_wp WP161989 6.00000 159.000 15 -1 6.00000 159.000 1 15 7 269
1989216N06159 1989 74 WP MM OWEN 1989-08-04 03:00:00 NR 5.99512 158.638 main 1274 1255 P_________P___ WP161989 6.00252 158.663 15 -1 5.98772 158.614 1 15 7 269
1989216N06159 1989 74 WP MM OWEN 1989-08-04 06:00:00 NR 5.99012 158.266 main 1255 1231 O_________P___ jtwc_wp WP161989 6.00000 158.300 15 -1 5.98024 158.232 1 15 8 269
1989216N06159 1989 74 WP MM OWEN 1989-08-04 09:00:00 NR 5.98757 157.880 main 1231 1208 P_________P___ WP161989 5.99250 157.900 15 -1 5.98264 157.860 1 15 8 271
1989216N06159 1989 74 WP MM OWEN 1989-08-04 12:00:00 NR 6.00000 157.500 main 1208 1191 O_________O___ jtwc_wp WP161989 6.00000 157.500 15 -1 6.00000 157.500 1 15 7 274
1989216N06159 1989 74 WP MM OWEN 1989-08-04 15:00:00 NR 6.03901 157.146 main 1185 1177 P_________P___ WP161989 6.04248 157.135 15 -1 6.03554 157.157 1 15 7 278
1989216N06159 1989 74 WP MM OWEN 1989-08-04 18:00:00 NR 6.09245 156.814 main 1177 1161 O_________P___ jtwc_wp WP161989 6.10000 156.800 15 -1 6.08489 156.828 1 15 7 279
1989216N06159 1989 74 WP MM OWEN 1989-08-04 21:00:00 NR 6.14589 156.501 main 1161 1155 P_________P___ WP161989 6.14997 156.492 15 -1 6.14180 156.510 1 15 6 280
1989216N06159 1989 74 WP MM OWEN 1989-08-05 00:00:00 NR 6.20000 156.200 main 1155 1141 O_________O___ jtwc_wp WP161989 6.20000 156.200 15 -1 6.20000 156.200 1 15 6 280
1989216N06159 1989 74 WP MM OWEN 1989-08-05 03:00:00 NR 6.24791 155.900 main 1141 1135 P_________P___ WP161989 6.24998 155.900 15 -1 6.24583 155.901 1 15 6 279
1989216N06159 1989 74 WP MM OWEN 1989-08-05 06:00:00 NR 6.29618 155.604 main 1135 1120 O_________P___ jtwc_wp WP161989 6.30000 155.600 15 -1 6.29235 155.607 1 15 6 279
1989216N06159 1989 74 WP MM OWEN 1989-08-05 09:00:00 NR 6.34258 155.309 main 1120 1116 P_________P___ WP161989 6.34247 155.307 15 -1 6.34270 155.310 1 15 6 280
1989216N06159 1989 74 WP MM OWEN 1989-08-05 12:00:00 NR 6.40000 155.000 main 1116 1108 O_________O___ jtwc_wp WP161989 6.40000 155.000 15 -1 6.40000 155.000 1 15 7 282
1989216N06159 1989 74 WP MM OWEN 1989-08-05 15:00:00 NR 6.48390 154.659 main 1114 1101 P_________P___ WP161989 6.49999 154.658 15 -1 6.46781 154.660 1 15 7 284
1989216N06159 1989 74 WP MM OWEN 1989-08-05 18:00:00 NR 6.57125 154.304 main 1108 1097 O_________P___ jtwc_wp WP161989 6.60000 154.300 15 -1 6.54249 154.308 1 15 7 282
1989216N06159 1989 74 WP MM OWEN 1989-08-05 21:00:00 NR 6.63921 153.947 main 1094 1094 P_________P___ WP161989 6.65749 153.942 15 -1 6.62093 153.951 1 15 7 280
1989216N06159 1989 74 WP MM OWEN 1989-08-06 00:00:00 NR 6.70000 153.600 main 1095 1086 O_________O___ jtwc_wp WP161989 6.70000 153.600 15 -1 6.70000 153.600 1 15 7 280
1989216N06159 1989 74 WP MM OWEN 1989-08-06 03:00:00 NR 6.75460 153.288 main 1097 1089 P_________P___ WP161989 6.74245 153.300 15 -1 6.76675 153.276 1 16 6 281
1989216N06159 1989 74 WP MM OWEN 1989-08-06 06:00:00 NR 6.81741 152.979 main 1089 1087 O_________P___ jtwc_wp WP161989 6.80000 153.000 15 -1 6.83482 152.957 1 17 7 283
1989216N06159 1989 74 WP MM OWEN 1989-08-06 09:00:00 NR 6.90148 152.650 main 1094 1090 P_________P___ WP161989 6.89247 152.665 17 -1 6.91049 152.635 1 18 7 285
1989216N06159 1989 74 WP MM OWEN 1989-08-06 12:00:00 NR 7.00000 152.300 main 1098 1095 O_________O___ jtwc_wp WP161989 7.00000 152.300 20 -1 7.00000 152.300 1 20 7 284
1989216N06159 1989 74 WP MM OWEN 1989-08-06 15:00:00 NR 7.08729 151.926 main 1103 1101 P_________P___ WP161989 7.09250 151.900 20 -1 7.08209 151.951 1 21 8 284
1989216N06159 1989 74 WP MM OWEN 1989-08-06 18:00:00 NR 7.19117 151.544 main 1111 1110 O_________P___ jtwc_wp WP161989 7.20000 151.500 20 -1 7.18234 151.587 1 22 8 287
1989216N06159 1989 74 WP MM OWEN 1989-08-06 21:00:00 NR 7.31817 151.181 main 1121 1120 P_________P___ WP161989 7.31992 151.157 22 -1 7.31643 151.204 1 23 8 293
1989216N06159 1989 74 WP MM OWEN 1989-08-07 00:00:00 NR 7.50000 150.800 main 1140 1136 O_________O___ jtwc_wp WP161989 7.50000 150.800 25 -1 7.50000 150.800 1 25 9 299
1989216N06159 1989 74 WP MM OWEN 1989-08-07 03:00:00 NR 7.76768 150.362 main 1158 1155 P_________P___ WP161989 7.77750 150.365 25 -1 7.75787 150.360 1 25 11 303
1989216N06159 1989 74 WP MM OWEN 1989-08-07 06:00:00 NR 8.08130 149.900 main 1176 1173 O_________P___ jtwc_wp WP161989 8.10000 149.900 25 -1 8.06259 149.900 1 25 11 304
1989216N06159 1989 74 WP MM OWEN 1989-08-07 09:00:00 NR 8.39675 149.438 main 1197 1197 P_________P___ WP161989 8.40749 149.435 25 -1 8.38600 149.441 1 25 11 305
1989216N06159 1989 74 WP MM OWEN 1989-08-07 12:00:00 NR 8.70000 149.000 main 1223 1221 O_________O___ jtwc_wp WP161989 8.70000 149.000 25 -1 8.70000 149.000 1 25 10 305
1989216N06159 1989 74 WP MM OWEN 1989-08-07 15:00:00 NR 8.96077 148.623 main 1250 1249 P_________P___ WP161989 8.95740 148.642 25 -1 8.96414 148.603 1 25 9 305
1989216N06159 1989 74 WP MM OWEN 1989-08-07 18:00:00 NR 9.20734 148.264 main 1270 1269 O_________P___ jtwc_wp WP161989 9.20000 148.300 25 -1 9.21469 148.227 1 25 9 304
1989216N06159 1989 74 WP MM OWEN 1989-08-07 21:00:00 NR 9.45395 147.881 main 1300 1300 P_________P___ WP161989 9.45000 147.900 25 -1 9.45790 147.863 1 25 9 303
1989216N06159 1989 74 WP MM OWEN 1989-08-08 00:00:00 NR 9.70000 147.500 main 1322 1322 O_________O___ jtwc_wp WP161989 9.70000 147.500 25 -1 9.70000 147.500 1 25 9 304
1989216N06159 1989 74 WP MM OWEN 1989-08-08 03:00:00 NR 9.94988 147.139 main 1344 1344 P_________P___ WP161989 9.94991 147.150 25 -1 9.94984 147.129 1 25 9 305
1989216N06159 1989 74 WP MM OWEN 1989-08-08 06:00:00 NR 10.1999 146.779 main 1378 1378 O_________P___ jtwc_wp WP161989 10.2000 146.800 25 -1 10.1998 146.757 1 25 9 304
1989216N06159 1989 74 WP MM OWEN 1989-08-08 09:00:00 NR 10.4499 146.395 main 1400 1400 P_________P___ WP161989 10.4500 146.407 25 -1 10.4498 146.382 1 25 9 303
1989216N06159 1989 74 WP MM OWEN 1989-08-08 12:00:00 NR 10.7000 146.000 main 1435 1435 O_________O___ jtwc_wp WP161989 10.7000 146.000 25 -1 10.7000 146.000 1 25 9 302
1989216N06159 1989 74 WP MM OWEN 1989-08-08 15:00:00 NR 10.9418 145.603 main 1460 1460 P_________P___ WP161989 10.9499 145.600 25 -1 10.9336 145.607 1 25 9 302
1989216N06159 1989 74 WP MM OWEN 1989-08-08 18:00:00 NR 11.1849 145.203 main 1498 1498 O_________P___ jtwc_wp WP161989 11.2000 145.200 25 -1 11.1699 145.207 1 25 9 302
1989216N06159 1989 74 WP MM OWEN 1989-08-08 21:00:00 NR 11.4318 144.798 main 1525 1525 P_________P___ WP161989 11.4425 144.792 25 -1 11.4211 144.804 1 25 9 303
1989216N06159 1989 74 WP MM OWEN 1989-08-09 00:00:00 NR 11.7000 144.400 main 1565 1565 O_________O___ jtwc_wp WP161989 11.7000 144.400 25 -1 11.7000 144.400 1 25 10 307
1989216N06159 1989 74 WP MM OWEN 1989-08-09 03:00:00 NR 11.9973 144.019 main 1605 1605 P_________P___ WP161989 11.9774 144.057 25 -1 12.0172 143.980 1 25 10 301
1989216N06159 1989 74 WP MM OWEN 1989-08-09 06:00:00 TS 12.1834 143.561 1004 tokyo main 1636 1636 OO________P___ jtwc_wp WP161989 12.3000 143.700 25 -1 11.0000 143.000 2 1004 0 0 0 12.3626 143.563 1 25 11 289
1989216N06159 1989 74 WP MM OWEN 1989-08-09 09:00:00 TS 12.3489 142.954 main 1645 1642 PP________P___ WP161989 12.6926 143.250 25 -1 10.9059 141.939 2 1004 0 0 12.7266 143.164 1 25 13 286
1989216N06159 1989 74 WP MM OWEN 1989-08-09 12:00:00 TS 12.5273 142.309 1004 tokyo main 1643 1640 OO________O___ jtwc_wp WP161989 13.1000 142.800 25 -1 11.0000 141.000 2 1004 0 0 0 13.1000 142.800 1 25 13 289
1989216N06159 1989 74 WP MM OWEN 1989-08-09 15:00:00 TS 12.7690 141.716 main 1652 1648 PP________P___ WP161989 13.4500 142.412 25 -1 11.4096 140.306 2 1003 0 0 13.4475 142.428 1 25 11 307
1989216N06159 1989 74 WP MM OWEN 1989-08-09 18:00:00 TS 13.2017 141.400 1002 tokyo main 1681 1681 OO________P___ jtwc_wp WP161989 13.8000 142.100 25 -1 12.0000 140.000 2 1002 0 0 0 13.8050 142.101 1 25 10 335
1989216N06159 1989 74 WP MM OWEN 1989-08-09 21:00:00 TS 13.6516 141.291 main 1711 1711 PP________P___ WP161989 14.1700 141.855 25 -1 12.6000 140.172 2 1002 0 0 14.1850 141.847 1 25 9 3
1989216N06159 1989 74 WP MM OWEN 1989-08-10 00:00:00 TS 14.1231 141.462 1002 tokyo main 1739 1739 OOO_______O___ jtwc_wp WP161989 14.6000 141.700 25 -1 13.2000 140.600 2 1002 0 0 0 14.0000 143.000 0 19 1004 14.6000 141.700 1 25 10 16
1989216N06159 1989 74 WP MM OWEN 1989-08-10 03:00:00 TS 14.6014 141.568 main 1760 1760 PPP_______P___ WP161989 15.1424 141.583 25 -1 13.7225 140.958 2 1002 0 0 14.2877 142.585 0 19 1003 15.0962 141.655 1 25 10 12
1989216N06159 1989 74 WP MM OWEN 1989-08-10 06:00:00 TS 15.0592 141.672 1002 tokyo main 1780 1780 OOO_______P___ jtwc_wp WP161989 15.7000 141.600 25 -1 14.2000 141.300 2 1002 0 0 0 14.6000 142.200 0 19 1003 15.6220 141.719 1 25 9 13
1989216N06159 1989 74 WP MM OWEN 1989-08-10 09:00:00 TS 15.4861 141.778 main 1798 1798 PPP_______P___ WP161989 16.1875 141.790 25 -1 14.6574 141.565 2 1003 0 0 14.9625 141.883 0 19 1003 16.1368 141.874 1 25 9 16
1989216N06159 1989 74 WP MM OWEN 1989-08-10 12:00:00 TS 15.9250 141.925 1004 tokyo main 1817 1817 OOO_______O___ jtwc_wp WP161989 16.6000 142.100 25 -1 15.1000 141.800 2 1004 0 0 0 15.4000 141.700 0 19 1003 16.6000 142.100 1 25 9 21
1989216N06159 1989 74 WP MM OWEN 1989-08-10 15:00:00 TS 16.3430 142.127 main 1847 1847 PPP_______P___ WP161989 16.9225 142.443 25 -1 15.5500 142.050 2 1004 0 0 15.9499 141.660 0 19 1003 16.9495 142.356 1 26 9 29
1989216N06159 1989 74 WP MM OWEN 1989-08-10 18:00:00 TS 16.7363 142.394 1004 tokyo main 1888 1888 OOO_______P___ jtwc_wp WP161989 17.2000 142.800 25 -1 16.0000 142.300 2 1004 0 0 0 16.5000 141.800 0 19 1003 17.2452 142.675 1 27 9 35
1989216N06159 1989 74 WP MM OWEN 1989-08-10 21:00:00 TS 17.1013 142.684 main 1929 1922 PPP_______P___ WP161989 17.4849 143.100 27 -1 16.4574 142.535 2 1005 0 0 16.9448 142.067 0 19 1003 17.5182 143.032 1 28 9 40
1989216N06159 1989 74 WP MM OWEN 1989-08-11 00:00:00 TS 17.4500 143.025 1006 tokyo main 1915 1896 OOO_______O___ jtwc_wp WP161989 17.8000 143.400 30 -1 16.9000 142.800 2 1006 0 0 0 17.3000 142.500 0 19 1003 17.8000 143.400 1 30 10 44
1989216N06159 1989 74 WP MM OWEN 1989-08-11 03:00:00 TS 17.8122 143.412 main 1900 1881 PPP_______P___ WP161989 18.2000 143.742 30 -1 17.3074 143.120 2 1005 0 0 17.5577 143.078 0 19 1003 18.1837 143.706 1 30 11 47
1989216N06159 1989 74 WP MM OWEN 1989-08-11 06:00:00 TS 18.1685 143.831 1004 tokyo main 1875 1857 OOO_______P___ jtwc_wp WP161989 18.6000 144.100 30 -1 17.7000 143.500 2 1004 0 0 0 17.8000 143.700 0 19 1003 18.5739 144.025 1 30 11 48
1989216N06159 1989 74 WP MM OWEN 1989-08-11 09:00:00 TS 18.5286 144.242 main 1861 1850 PPP_______P___ WP161989 18.9372 144.413 30 -1 18.1149 143.928 2 1004 0 0 18.1349 144.245 0 19 1003 18.9272 144.381 1 30 11 50
1989216N06159 1989 74 WP MM OWEN 1989-08-11 12:00:00 TS 18.8500 144.675 1004 tokyo main 1844 1834 OOO_______O___ jtwc_wp WP161989 19.2000 144.800 30 -1 18.5000 144.400 2 1004 0 0 0 18.5000 144.700 0 19 1003 19.2000 144.800 1 30 10 56
1989216N06159 1989 74 WP MM OWEN 1989-08-11 15:00:00 TS 19.1164 145.151 main 1839 1826 PPP_______P___ WP161989 19.4027 145.370 30 -1 18.8299 144.885 2 1004 0 0 18.8795 144.985 0 19 1003 19.3538 145.364 1 30 10 64
1989216N06159 1989 74 WP MM OWEN 1989-08-11 18:00:00 TS 19.3055 145.670 1004 tokyo main 1833 1828 OOO_______P___ jtwc_wp WP161989 19.5000 146.000 30 -1 19.1000 145.400 2 1004 0 0 0 19.2000 145.300 0 19 1003 19.4218 145.981 1 30 11 74
1989216N06159 1989 74 WP MM OWEN 1989-08-11 21:00:00 TS 19.4198 146.257 main 1841 1841 PPP_______P___ WP161989 19.4801 146.603 30 -1 19.3450 145.957 2 1003 0 0 19.4254 145.885 0 24 1002 19.4288 146.582 1 30 11 82
1989216N06159 1989 74 WP MM OWEN 1989-08-12 00:00:00 TS 19.4500 146.800 1002 tokyo main 1848 1858 OOO_______O___ jtwc_wp WP161989 19.4000 147.100 30 -1 19.5000 146.500 2 1002 0 0 0 19.5000 146.500 1 29 1002 19.4000 147.100 1 30 9 90
1989216N06159 1989 74 WP MM OWEN 1989-08-12 03:00:00 TS 19.4152 147.188 main 1873 1873 PPP_______P___ WP161989 19.3497 147.395 30 -1 19.5374 146.988 2 1002 0 0 19.3797 146.930 1 29 1002 19.3939 147.439 1 31 7 98
1989216N06159 1989 74 WP MM OWEN 1989-08-12 06:00:00 TS 19.3550 147.504 1002 tokyo main 1885 1885 OOOO______P___ jtwc_wp WP161989 19.3000 147.600 30 -1 19.5000 147.400 2 1002 0 0 0 19.2000 147.300 1 29 1002 19.6000 147.600 TD 25 995 19.3586 147.690 1 32 6 101
1989216N06159 1989 74 WP MM OWEN 1989-08-12 09:00:00 TS 19.3026 147.820 main 1907 1907 PPPP______P___ WP161989 19.2725 147.857 32 -1 19.4574 147.730 2 1001 0 0 19.1426 147.730 1 29 1001 19.3901 147.955 TD 25 995 19.2941 147.896 1 33 6 103
1989216N06159 1989 74 WP MM OWEN 1989-08-12 12:00:00 TS 19.2211 148.111 1000 tokyo main 1929 1929 OOOO______O___ jtwc_wp WP161989 19.2000 148.100 35 0 19.4000 148.000 2 1000 0 0 0 19.1000 148.100 1 29 1000 19.2000 148.300 TD 25 995 19.2000 148.100 2 35 6 112
1989216N06159 1989 74 WP MM OWEN 1989-08-12 15:00:00 TS 19.0958 148.365 main 1952 1952 PPPP______P___ WP161989 19.0074 148.285 35 0 19.3649 148.250 2 999 0 0 19.0223 148.330 1 29 999 19.0425 148.622 TD 27 992 19.0417 148.336 2 37 5 120
1989216N06159 1989 74 WP MM OWEN 1989-08-12 18:00:00 TS 18.9523 148.597 35 998 tokyo main 1971 1971 OOOO______P___ jtwc_wp WP161989 18.8000 148.500 35 0 19.3000 148.500 3 35 998 0 9 60 60 0 18.9000 148.500 1 29 998 18.9000 148.900 TD 30 990 18.8617 148.583 2 40 5 124
1989216N06159 1989 74 WP MM OWEN 1989-08-12 21:00:00 TS 18.7956 148.840 main 2000 2000 PPPP______P___ WP161989 18.6924 148.812 40 0 19.1724 148.770 3 40 995 0 9 75 75 18.6848 148.663 1 33 996 18.7273 149.092 TD 32 987 18.7009 148.864 2 42 6 120
1989216N06159 1989 74 WP MM OWEN 1989-08-13 00:00:00 TS 18.6600 149.140 45 992 tokyo main 2023 2023 OOOO______O___ jtwc_wp WP161989 18.6000 149.200 45 0 19.0000 149.100 3 45 992 0 9 90 90 0 18.5000 148.900 2 38 995 18.6000 149.300 TS 35 985 18.6000 149.200 2 45 7 111
1989216N06159 1989 74 WP MM OWEN 1989-08-13 03:00:00 TS 18.5402 149.540 main 2061 2061 PPPP______P___ WP161989 18.3899 149.628 45 0 18.7550 149.520 3 50 988 0 9 95 95 18.4624 149.290 2 43 990 18.5474 149.613 TS 37 985 18.5460 149.646 2 47 8 100
1989216N06159 1989 74 WP MM OWEN 1989-08-13 06:00:00 TS 18.5127 150.009 55 985 tokyo main 2084 2084 OOOO______P___ jtwc_wp WP161989 18.3000 150.100 45 0 18.6000 150.000 4 55 985 9 50 50 9 100 100 0 18.5000 149.800 3 48 985 18.6000 150.000 TS 40 985 18.5635 150.143 2 50 9 85
1989216N06159 1989 74 WP MM OWEN 1989-08-13 09:00:00 TS 18.6150 150.537 main 2098 2098 PPPP______P___ WP161989 18.5176 150.622 50 0 18.6677 150.537 4 57 982 9 50 50 9 125 125 18.4754 150.423 3 48 985 18.7401 150.457 TS 42 982 18.6742 150.643 2 52 10 70
1989216N06159 1989 74 WP MM OWEN 1989-08-13 12:00:00 TS 18.8600 151.020 60 980 tokyo main 2094 2080 OOOO______O___ jtwc_wp WP161989 18.9000 151.100 55 0 18.9000 151.000 4 60 980 9 50 50 9 150 150 0 18.6000 151.000 3 48 985 19.0000 150.900 TS 45 980 18.9000 151.100 2 55 10 53
1989216N06159 1989 74 WP MM OWEN 1989-08-13 15:00:00 TS 19.2072 151.354 main 2086 2058 PPPP______P___ WP161989 19.2623 151.430 57 0 19.1822 151.238 4 62 977 9 55 55 9 150 150 19.0172 151.345 3 53 982 19.3549 151.238 TS 50 977 19.2193 151.518 2 57 10 35
1989216N06159 1989 74 WP MM OWEN 1989-08-13 18:00:00 TS 19.6710 151.615 65 975 tokyo main 2049 2017 OOOO______P___ jtwc_wp WP161989 19.7000 151.700 60 0 19.6000 151.400 5 65 975 9 60 60 9 150 150 0 19.6000 151.600 3 58 980 19.8000 151.500 STS 55 975 19.6550 151.877 2 60 11 28
1989216N06159 1989 74 WP MM OWEN 1989-08-13 21:00:00 TS 20.1962 151.907 main 2017 1971 PPPP______P___ WP161989 20.2051 152.052 62 0 20.1551 151.665 5 67 970 9 65 65 9 162 162 20.1626 151.937 3 58 977 20.2700 151.730 STS 60 972 20.1881 152.148 2 62 12 23
1989216N06159 1989 74 WP MM OWEN 1989-08-14 00:00:00 TS 20.8000 152.120 70 965 tokyo main 1971 1921 OOOO______O___ jtwc_wp WP161989 20.8000 152.300 65 1 20.8000 151.900 5 70 965 9 70 70 9 175 175 0 20.8000 152.200 3 58 975 20.8000 151.900 T 65 970 20.8000 152.300 3 65 13 13
1989216N06159 1989 74 WP MM OWEN 1989-08-14 03:00:00 TS 21.4557 152.215 main 1912 1857 PPPP______P___ WP161989 21.4699 152.325 67 1 21.4275 152.052 5 72 962 9 70 70 9 175 175 21.5499 152.325 3 63 970 21.3625 152.045 T 67 967 21.4690 152.327 3 67 14 2
1989216N06159 1989 74 WP MM OWEN 1989-08-14 06:00:00 TS 22.1609 152.186 75 960 tokyo main 1848 1787 OOOO______P___ jtwc_wp WP161989 22.2000 152.200 70 1 22.1000 152.100 5 75 960 9 70 70 9 175 175 0 22.3000 152.300 4 68 965 22.0000 152.100 T 70 965 22.2045 152.231 3 70 14 354
1989216N06159 1989 74 WP MM OWEN 1989-08-14 09:00:00 TS 22.8751 152.062 main 1778 1704 PPPP______P___ WP161989 22.9425 152.037 72 1 22.8425 152.045 5 75 960 9 75 75 9 187 187 22.9000 152.138 4 68 965 22.7275 152.045 T 67 967 22.9629 152.045 3 72 15 348
1989216N06159 1989 74 WP MM OWEN 1989-08-14 12:00:00 TS 23.6000 151.860 75 960 tokyo main 1704 1630 OOOO______O___ jtwc_wp WP161989 23.7000 151.800 75 1 23.6000 151.900 5 75 960 9 80 80 9 200 200 0 23.5000 151.900 4 68 965 23.5000 151.900 T 65 970 23.7000 151.800 4 75 15 346
1989216N06159 1989 74 WP MM OWEN 1989-08-14 15:00:00 TS 24.3427 151.650 main 1630 1550 PPPP______P___ WP161989 24.4875 151.515 75 1 24.3299 151.737 5 75 960 9 80 80 9 200 200 24.2574 151.722 4 72 962 24.2724 151.730 T 65 970 24.3661 151.547 4 75 15 343
1989216N06159 1989 74 WP MM OWEN 1989-08-14 18:00:00 TS 25.0405 151.389 75 960 tokyo main 1550 1480 OOOO______P___ jtwc_wp WP161989 25.2000 151.200 75 1 25.0000 151.500 5 75 960 9 80 80 9 200 200 0 25.0000 151.500 4 77 960 25.0000 151.500 T 65 970 25.0027 151.246 4 75 14 338
1989216N06159 1989 74 WP MM OWEN 1989-08-14 21:00:00 TS 25.6191 151.072 main 1480 1418 PPPP______P___ WP161989 25.7375 150.892 75 1 25.5576 151.157 5 75 960 9 80 80 9 200 200 25.5651 151.157 4 77 960 25.6224 151.230 T 65 970 25.6130 150.922 4 75 13 332
1989216N06159 1989 74 WP MM OWEN 1989-08-15 00:00:00 TS 26.1600 150.740 75 960 tokyo main 1403 1349 OOOO______O___ jtwc_wp WP161989 26.2000 150.600 75 1 26.1000 150.800 5 75 960 9 80 80 9 200 200 0 26.1000 150.800 4 77 960 26.2000 150.900 T 65 970 26.2000 150.600 4 75 13 334
1989216N06159 1989 74 WP MM OWEN 1989-08-15 03:00:00 TS 26.7588 150.453 main 1340 1279 PPPP______P___ WP161989 26.6849 150.349 75 1 26.7573 150.542 5 75 960 9 80 80 9 200 200 26.7498 150.542 4 77 960 26.8226 150.500 T 62 972 26.7792 150.332 4 75 13 337
1989216N06159 1989 74 WP MM OWEN 1989-08-15 06:00:00 TS 27.3473 150.174 75 960 tokyo main 1279 1211 OOOO______P___ jtwc_wp WP161989 27.2000 150.100 75 1 27.4000 150.300 5 75 960 9 80 80 9 200 200 0 27.4000 150.300 4 77 960 27.4000 150.100 STS 60 975 27.3367 150.070 4 75 12 336
1989216N06159 1989 74 WP MM OWEN 1989-08-15 09:00:00 TS 27.8946 149.887 main 1211 1151 PPPP______P___ WP161989 27.8074 149.822 75 1 27.9299 150.015 5 72 962 9 80 80 9 200 200 27.9874 150.015 4 77 960 27.8723 149.784 STS 60 975 27.8760 149.798 4 75 12 333
1989216N06159 1989 74 WP MM OWEN 1989-08-15 12:00:00 TS 28.4000 149.580 70 965 tokyo main 1151 1099 OOOO______O___ jtwc_wp WP161989 28.4000 149.500 75 1 28.4000 149.700 5 70 965 9 80 80 9 200 200 0 28.5000 149.700 4 77 960 28.3000 149.500 STS 60 975 28.4000 149.500 4 75 11 329
1989216N06159 1989 74 WP MM OWEN 1989-08-15 15:00:00 TS 28.8468 149.243 main 1092 1033 PPPP______P___ WP161989 28.8576 149.107 72 1 28.8349 149.364 5 70 965 9 75 75 9 187 187 28.8923 149.379 4 77 960 28.7348 149.222 STS 57 975 28.9146 149.141 4 73 11 326
1989216N06159 1989 74 WP MM OWEN 1989-08-15 18:00:00 TS 29.3031 148.871 70 965 tokyo main 1033 966 OOOO______P___ jtwc_wp WP161989 29.3000 148.700 70 1 29.3000 149.000 5 70 965 9 70 70 9 175 175 0 29.3000 149.000 4 77 960 29.2000 148.900 STS 55 975 29.4154 148.757 4 72 12 326
1989216N06159 1989 74 WP MM OWEN 1989-08-15 21:00:00 TS 29.8542 148.463 main 959 892 PPPP______P___ WP161989 29.8349 148.335 70 1 29.8998 148.622 5 70 967 9 70 70 9 175 175 29.8851 148.523 4 72 965 29.7426 148.465 STS 52 977 29.9084 148.369 4 71 13 327
1989216N06159 1989 74 WP MM OWEN 1989-08-16 00:00:00 TS 30.4200 148.040 70 970 tokyo main 885 819 OOOO______O___ jtwc_wp WP161989 30.4000 148.000 70 1 30.5000 148.200 5 70 970 9 70 70 9 175 175 0 30.5000 148.000 4 68 970 30.3000 148.000 STS 50 980 30.4000 148.000 4 70 13 326
1989216N06159 1989 74 WP MM OWEN 1989-08-16 03:00:00 TS 30.9250 147.624 main 819 761 PPPP______P___ WP161989 30.9649 147.692 67 1 30.9577 147.692 5 67 972 9 65 65 9 175 175 31.0150 147.477 4 63 972 30.7999 147.584 STS 50 980 30.8874 147.673 4 68 12 325
1989216N06159 1989 74 WP MM OWEN 1989-08-16 06:00:00 TS 31.4154 147.234 65 975 tokyo main 754 696 OOOO______P___ jtwc_wp WP161989 31.5000 147.400 65 1 31.4000 147.200 5 65 975 9 60 60 9 175 175 0 31.5000 147.000 3 58 975 31.3000 147.200 STS 50 980 31.3770 147.368 4 67 12 328
1989216N06159 1989 74 WP MM OWEN 1989-08-16 09:00:00 TS 31.9300 146.885 main 696 640 PPPP______P___ WP161989 31.9650 147.085 65 1 31.9497 146.820 5 65 975 9 60 60 9 175 175 32.0073 146.605 3 58 975 31.8499 146.835 STS 50 980 31.8781 147.079 4 66 12 332
1989216N06159 1989 74 WP MM OWEN 1989-08-16 12:00:00 TS 32.4400 146.580 65 975 tokyo main 640 585 OOOO______O___ jtwc_wp WP161989 32.4000 146.800 65 1 32.5000 146.500 5 65 975 9 60 60 9 175 175 0 32.5000 146.300 3 58 975 32.4000 146.500 STS 50 980 32.4000 146.800 4 65 11 333
1989216N06159 1989 74 WP MM OWEN 1989-08-16 15:00:00 TS 32.9132 146.296 main 585 539 PPPP______P___ WP161989 32.8123 146.606 60 0 32.9500 146.177 5 65 975 9 60 60 9 175 175 32.9499 146.069 3 58 975 32.9000 146.177 STS 50 980 32.9537 146.451 4 62 11 335
1989216N06159 1989 74 WP MM OWEN 1989-08-16 18:00:00 TS 33.4056 146.044 65 975 tokyo main 531 489 OOOO______P___ jtwc_wp WP161989 33.3000 146.400 55 0 33.4000 145.900 5 65 975 9 60 60 9 175 175 0 33.4000 145.900 3 58 975 33.4000 145.900 STS 50 980 33.5279 146.119 4 60 11 337
1989216N06159 1989 74 WP MM OWEN 1989-08-16 21:00:00 TS 33.9527 145.778 main 484 447 PPPP______P___ WP161989 33.9779 146.014 55 0 33.9200 145.648 5 65 975 9 60 60 9 175 175 33.8250 145.720 3 53 980 33.9275 145.655 STS 52 977 34.1130 145.852 4 57 12 342
1989216N06159 1989 74 WP MM OWEN 1989-08-17 00:00:00 TS 34.5600 145.600 65 975 tokyo main 443 428 OOOO______O___ jtwc_wp WP161989 34.7000 145.700 55 0 34.5000 145.500 5 65 975 9 60 60 9 175 175 0 34.4000 145.600 3 48 985 34.5000 145.500 STS 55 975 34.7000 145.700 2 55 13 352
1989216N06159 1989 74 WP MM OWEN 1989-08-17 03:00:00 TS 35.2271 145.568 main 428 423 PPPP______P___ WP161989 35.3222 145.659 55 0 35.1056 145.505 5 65 975 9 60 60 9 175 175 35.3424 145.548 3 48 985 35.1274 145.440 STS 55 975 35.2378 145.687 2 55 14 2
1989216N06159 1989 74 WP MM OWEN 1989-08-17 06:00:00 TS 35.9163 145.660 65 975 tokyo main 432 425 OOOO______P___ jtwc_wp WP161989 35.9000 145.800 55 0 35.8000 145.600 5 65 975 9 60 60 9 175 175 0 36.3000 145.600 3 48 985 35.8000 145.500 STS 55 975 35.7816 145.798 2 55 13 9
1989216N06159 1989 74 WP MM OWEN 1989-08-17 09:00:00 TS 36.5534 145.822 60 980 tokyo main 423 416 POPP______P___ WP161989 36.4124 145.998 55 0 36.6000 145.700 4 60 980 9 30 30 2 200 175 0 36.9024 145.755 3 48 985 36.4924 145.648 STS 52 977 36.3597 146.011 2 55 13 14
1989216N06159 1989 74 WP MM OWEN 1989-08-17 12:00:00 TS 37.1600 146.040 55 980 tokyo main 413 407 OOOO______O___ jtwc_wp WP161989 37.0000 146.300 55 0 37.2000 145.700 4 55 980 9 30 30 2 200 175 0 37.4000 146.000 3 48 985 37.2000 145.900 STS 50 980 37.0000 146.300 2 55 14 18
1989216N06159 1989 74 WP MM OWEN 1989-08-17 15:00:00 TS 37.8546 146.345 main 404 402 PPPP______P___ WP161989 37.8201 146.677 50 0 37.8591 145.991 4 52 982 9 2 187 162 37.9697 146.249 3 48 985 37.8848 146.206 STS 47 982 37.7394 146.604 2 51 16 21
1989216N06159 1989 74 WP MM OWEN 1989-08-17 18:00:00 TS 38.6080 146.756 50 985 tokyo main 416 414 OOOO______P___ jtwc_wp WP161989 38.7000 147.100 45 0 38.6000 146.500 4 50 985 0 2 175 150 0 38.6000 146.600 3 48 985 38.6000 146.600 TS 45 985 38.5399 146.981 2 47 17 24
1989216N06159 1989 74 WP MM OWEN 1989-08-17 21:00:00 TS 39.3982 147.239 main 436 380 PPPP______P___ WP161989 39.4572 147.487 42 0 39.4504 147.091 4 50 985 0 2 187 150 39.3279 147.127 3 43 987 39.3850 147.070 TS 45 985 39.3704 147.418 2 43 18 26
1989216N06159 1989 74 WP MM OWEN 1989-08-18 00:00:00 TS 40.2000 147.760 50 985 tokyo main 384 338 OOOO______O___ jtwc_wp WP161989 40.2000 147.900 40 0 40.3000 147.700 4 50 985 0 2 200 150 0 40.1000 147.700 2 38 990 40.2000 147.600 TS 45 985 40.2000 147.900 2 40 18 26
1989216N06159 1989 74 WP MM OWEN 1989-08-18 03:00:00 TS 40.9766 148.236 main 330 309 PPPP______P___ WP161989 40.9998 148.371 40 0 41.0217 148.153 4 50 985 0 2 200 150 40.8493 148.145 2 38 990 41.0145 148.121 TS 45 985 40.9978 148.389 2 40 17 26
1989216N06159 1989 74 WP MM OWEN 1989-08-18 06:00:00 TS 41.7373 148.744 50 985 tokyo main 309 292 OOOO______P___ jtwc_wp WP161989 41.8000 148.900 40 0 41.7000 148.600 4 50 985 0 2 200 150 0 41.6000 148.600 2 38 990 41.8000 148.700 TS 45 985 41.7865 148.921 2 40 17 28
1989216N06159 1989 74 WP MM OWEN 1989-08-18 09:00:00 TS 42.4861 149.329 main 287 249 PPPP______P___ WP161989 42.5721 149.471 40 0 42.4146 149.156 4 50 985 0 2 200 150 42.3721 149.156 2 38 990 42.5148 149.372 TS 42 985 42.5569 149.493 2 40 17 32
1989216N06159 1989 74 WP MM OWEN 1989-08-18 12:00:00 TS 43.2000 149.980 50 985 tokyo main 252 212 OOOO______O___ jtwc_wp WP161989 43.3000 150.100 40 0 43.1000 149.800 4 50 985 0 2 200 150 0 43.1000 149.800 2 38 990 43.2000 150.100 TS 40 985 43.3000 150.100 2 40 17 36
1989216N06159 1989 74 WP MM OWEN 1989-08-18 15:00:00 TS 43.8526 150.682 main 204 180 PPPP______P___ WP161989 43.9575 150.794 37 0 43.6991 150.493 4 47 987 0 2 200 150 43.7146 150.515 2 38 990 43.8998 150.851 TS 40 985 43.9918 150.755 2 38 17 39
1989216N06159 1989 74 WP MM OWEN 1989-08-18 18:00:00 TS 44.4962 151.426 45 990 tokyo main 180 171 OOOO______P___ jtwc_wp WP161989 44.6000 151.500 35 0 44.3000 151.300 3 45 990 0 2 200 150 0 44.3000 151.300 2 38 990 44.6000 151.600 TS 40 985 44.6579 151.440 2 37 17 40
1989216N06159 1989 74 WP MM OWEN 1989-08-18 21:00:00 TS 45.1714 152.210 main 171 171 PPPP______P___ WP161989 45.2921 152.166 35 0 44.9564 152.322 3 45 991 0 2 200 150 44.9338 152.133 2 38 990 45.3006 152.309 TS 37 987 45.3199 152.131 2 36 18 38
1989216N06159 1989 74 WP MM OWEN 1989-08-19 00:00:00 TS 45.8857 152.971 45 992 tokyo main 201 200 OOOO______O___ jtwc_wp WP161989 46.0000 152.800 35 0 45.7000 153.300 3 45 992 0 2 200 150 0 45.6000 153.000 2 38 990 46.0000 153.000 TS 35 990 46.0000 152.800 2 35 18 33
1989216N06159 1989 74 WP MM OWEN 1989-08-19 03:00:00 TS 46.6633 153.582 main 253 253 PP________P___ WP161989 46.6846 153.410 32 -1 46.5899 153.905 3 994 0 2 2 TS 46.7153 153.430 2 32 18 28
1989216N06159 1989 74 WP MM OWEN 1989-08-19 06:00:00 ET 47.4583 154.209 996 tokyo main 290 201 OO________P___ jtwc_wp WP161989 47.4000 154.000 30 -1 47.5000 154.500 6 996 0 0 0 47.4610 154.029 2 30 18 32
1989216N06159 1989 74 WP MM OWEN 1989-08-19 09:00:00 ET 48.2195 155.024 main 201 119 PP________P___ WP161989 48.1807 154.593 27 -1 48.2355 155.444 6 996 0 0 48.2264 154.614 2 27 20 39
1989216N06159 1989 74 WP MM OWEN 1989-08-19 12:00:00 ET 49.0000 156.067 996 tokyo main 121 95 OO________O___ jtwc_wp WP161989 49.0000 155.200 25 -1 49.0000 156.500 6 996 0 0 0 49.0000 155.200 1 25 24 42
1989216N06159 1989 74 WP MM OWEN 1989-08-19 15:00:00 ET 49.9982 157.464 main 107 83 _P____________ WP161989 -1 49.9982 157.464 6 998 0 0 1 25 38
1989216N06159 1989 74 WP MM OWEN 1989-08-19 18:00:00 ET 51.0000 158.500 1000 tokyo main 78 73 _O____________ -1 51.0000 158.500 6 1000 0 0 0 1 23 39
1989216N06159 1989 74 WP MM OWEN 1989-08-19 21:00:00 ET 51.7883 159.753 main 104 85 _P____________ -1 51.7883 159.753 6 1000 0 0 1 21 46
1989216N06159 1989 74 WP MM OWEN 1989-08-20 00:00:00 ET 52.5000 161.000 1000 tokyo main 89 85 _O____________ -1 52.5000 161.000 6 1000 0 0 0 20 44
1989216N06159 1989 74 WP MM OWEN 1989-08-20 03:00:00 ET 53.2086 161.976 main 126 92 _P____________ -1 53.2086 161.976 6 1000 0 0 19 39
1989216N06159 1989 74 WP MM OWEN 1989-08-20 06:00:00 ET 54.0000 163.000 1000 tokyo main 96 89 _O____________ -1 54.0000 163.000 6 1000 0 0 0 23 40
1989216N06159 1989 74 WP MM OWEN 1989-08-20 09:00:00 ET 55.0048 164.560 main 149 140 _P____________ -1 55.0048 164.560 6 999 0 0 26 41
1989216N06159 1989 74 WP MM OWEN 1989-08-20 12:00:00 ET 56.0000 166.000 998 tokyo main 161 161 _O____________ -1 56.0000 166.000 6 998 0 0 0 21 31
1989216N06159 1989 74 WP MM OWEN 1989-08-20 15:00:00 ET 56.8186 166.520 main 199 199 _P____________ -1 56.8186 166.520 6 999 0 0 16 20
1989216N06159 1989 74 WP MM OWEN 1989-08-20 18:00:00 ET 57.5000 167.000 1000 tokyo main 208 204 _O____________ -1 57.5000 167.000 6 1000 0 0 0 15 39
1989216N06159 1989 74 WP MM OWEN 1989-08-20 21:00:00 ET 57.9996 168.285 main 229 156 _P____________ -1 57.9996 168.285 6 1000 0 0 19 58
1989216N06159 1989 74 WP MM OWEN 1989-08-21 00:00:00 ET 58.5000 170.000 1000 tokyo main 155 117 _O____________ -1 58.5000 170.000 6 1000 0 0 0 23 58
1989216N06159 1989 74 WP MM OWEN 1989-08-21 03:00:00 ET 59.2183 172.063 main 127 125 _P____________ -1 59.2183 172.063 6 998 0 0 25 54
1989216N06159 1989 74 WP MM OWEN 1989-08-21 06:00:00 ET 60.0000 174.000 996 tokyo main 136 121 _O____________ -1 60.0000 174.000 6 996 0 0 0 22 46
1989216N06159 1989 74 WP MM OWEN 1989-08-21 09:00:00 ET 60.7581 175.231 main 115 69 _P____________ -1 60.7581 175.231 6 996 0 0 18 33
1989216N06159 1989 74 WP MM OWEN 1989-08-21 12:00:00 ET 61.5000 176.000 996 tokyo main 69 _O____________ -1 61.5000 176.000 6 996 0 0 0 16 26

Digital Typhoon Data and Search

About IBTrACS Database

This database is a web-friendly format of International Best Track Archive for Climate Stewardship (IBTrACS), a global best track data archive curated by NOAA dating back to 1842.

Updated: 2021-10-25